Time;durP1;ratioP1;P1;durP2;ratioP2;P2;SDS_P1;SDS_P2;PMS_P1;PMS_P2;Temp;Humidity;BMP_temperature;BMP_pressure;BME280_temperature;BME280_humidity;BME280_pressure;Samples;Min_cycle;Max_cycle;Signal;HPM_P1;HPM_P2
2023/05/16 00:01:23;;;;;;;19.23;17.23;;;9.00;99.90;;;;;;5072710;28;20208;-73
2023/05/16 00:03:50;;;;;;;17.53;15.83;;;9.10;99.90;;;;;;5072745;28;20228;-73
2023/05/16 00:06:18;;;;;;;17.93;16.10;;;9.00;99.90;;;;;;5072351;28;20700;-75
2023/05/16 00:08:45;;;;;;;17.97;16.23;;;8.90;99.90;;;;;;5072370;28;20258;-73
2023/05/16 00:11:11;;;;;;;18.20;16.20;;;9.00;99.90;;;;;;5072448;28;20273;-73
2023/05/16 00:13:41;;;;;;;18.60;16.70;;;9.00;99.90;;;;;;5072420;28;20239;-73
2023/05/16 00:16:08;;;;;;;19.67;16.93;;;8.90;99.90;;;;;;5072284;28;20667;-73
2023/05/16 00:18:36;;;;;;;20.10;17.93;;;8.80;99.90;;;;;;5072461;28;20580;-73
2023/05/16 00:21:03;;;;;;;20.87;18.07;;;8.80;99.90;;;;;;5072372;28;20207;-73
2023/05/16 00:23:31;;;;;;;20.37;18.27;;;8.70;99.90;;;;;;5072313;28;20204;-73
2023/05/16 00:25:58;;;;;;;20.93;17.90;;;8.70;99.90;;;;;;5072238;28;20224;-73
2023/05/16 00:28:24;;;;;;;19.50;17.43;;;8.70;99.90;;;;;;5072365;28;20567;-73
2023/05/16 00:30:51;;;;;;;19.93;17.83;;;8.80;99.90;;;;;;5072374;28;20239;-73
2023/05/16 00:33:18;;;;;;;21.50;18.10;;;8.80;99.90;;;;;;5073507;28;20652;-73
2023/05/16 00:35:44;;;;;;;20.77;18.67;;;8.60;99.90;;;;;;5075937;28;20197;-73
2023/05/16 00:38:11;;;;;;;20.57;18.30;;;8.50;99.90;;;;;;5075794;28;20675;-73
2023/05/16 00:40:39;;;;;;;21.90;19.70;;;8.40;99.90;;;;;;5075967;28;20197;-74
2023/05/16 00:43:06;;;;;;;21.23;18.57;;;8.40;99.90;;;;;;5075713;28;20209;-73
2023/05/16 00:45:33;;;;;;;22.30;19.90;;;8.50;99.90;;;;;;5075545;28;20228;-74
2023/05/16 00:47:59;;;;;;;24.27;19.73;;;8.60;99.90;;;;;;5075792;28;20247;-74
2023/05/16 00:50:26;;;;;;;22.30;20.00;;;8.70;99.90;;;;;;5075731;28;20201;-74
2023/05/16 00:52:53;;;;;;;21.87;19.57;;;8.70;99.90;;;;;;5075664;28;20233;-73
2023/05/16 00:55:20;;;;;;;27.93;18.77;;;8.70;99.90;;;;;;5075373;28;20552;-73
2023/05/16 00:57:48;;;;;;;22.70;20.43;;;8.50;99.90;;;;;;5075644;28;20255;-74
2023/05/16 01:00:15;;;;;;;22.80;19.43;;;8.40;99.90;;;;;;5075336;28;20649;-73
2023/05/16 01:02:43;;;;;;;22.97;20.43;;;8.40;99.90;;;;;;5075474;28;20236;-73
2023/05/16 01:05:09;;;;;;;24.67;21.47;;;8.30;99.90;;;;;;5075312;28;20586;-73
2023/05/16 01:07:36;;;;;;;23.63;21.17;;;8.20;99.90;;;;;;5075276;28;20224;-73
2023/05/16 01:10:04;;;;;;;25.70;22.00;;;8.30;99.90;;;;;;5075190;28;20204;-73
2023/05/16 01:12:40;;;;;;;22.90;20.50;;;8.40;99.90;;;;;;5075363;28;20192;-73
2023/05/16 01:15:12;;;;;;;22.83;20.43;;;8.40;99.90;;;;;;5075406;28;20561;-73
2023/05/16 01:17:50;;;;;;;23.53;21.07;;;8.30;99.90;;;;;;5075181;28;20652;-73
2023/05/16 01:20:28;;;;;;;24.27;21.37;;;8.30;99.90;;;;;;5075512;28;20207;-73
2023/05/16 01:23:07;;;;;;;23.83;21.23;;;8.30;99.90;;;;;;5075184;28;20203;-73
2023/05/16 01:25:45;;;;;;;23.60;21.17;;;8.20;99.90;;;;;;5075028;28;20228;-73
2023/05/16 01:28:16;;;;;;;23.53;20.57;;;8.30;99.90;;;;;;5075014;28;20200;-73
2023/05/16 01:30:43;;;;;;;23.47;20.87;;;8.10;99.90;;;;;;5074972;28;20201;-72
2023/05/16 01:33:10;;;;;;;23.93;21.43;;;8.00;99.90;;;;;;5075057;28;20196;-73
2023/05/16 01:35:43;;;;;;;24.57;21.17;;;8.00;99.90;;;;;;5074894;28;20203;-73
2023/05/16 01:38:16;;;;;;;26.87;22.50;;;8.00;99.90;;;;;;5074906;28;20254;-73
2023/05/16 01:40:51;;;;;;;26.23;22.57;;;8.00;99.90;;;;;;5074828;28;20196;-73
2023/05/16 01:43:24;;;;;;;24.90;22.23;;;8.10;99.90;;;;;;5074527;28;20197;-73
2023/05/16 01:45:54;;;;;;;28.00;23.60;;;8.10;99.90;;;;;;5073722;28;20286;-73
2023/05/16 01:48:26;;;;;;;25.60;22.77;;;8.10;99.90;;;;;;5082539;28;20185;-73
2023/05/16 01:50:55;;;;;;;25.73;22.83;;;8.10;99.90;;;;;;5074694;28;20258;-73
2023/05/16 01:53:28;;;;;;;29.13;23.67;;;8.00;99.90;;;;;;5074238;28;20224;-73
2023/05/16 01:55:57;;;;;;;26.23;23.27;;;8.00;99.90;;;;;;5074338;28;20193;-73
2023/05/16 01:58:30;;;;;;;29.90;23.63;;;7.90;99.90;;;;;;5074429;28;20193;-73
2023/05/16 02:01:01;;;;;;;28.70;24.40;;;7.80;99.90;;;;;;5074437;28;20245;-73
2023/05/16 02:03:27;;;;;;;26.27;23.47;;;7.70;99.90;;;;;;5074442;28;20678;-73
2023/05/16 02:05:54;;;;;;;27.80;24.27;;;7.70;99.90;;;;;;5073998;28;20225;-73
2023/05/16 02:08:21;;;;;;;29.17;24.07;;;7.70;99.90;;;;;;5074027;28;20193;-72
2023/05/16 02:10:47;;;;;;;26.43;23.67;;;7.90;99.90;;;;;;5074000;28;20726;-72
2023/05/16 02:13:14;;;;;;;28.37;25.20;;;7.90;99.90;;;;;;5074142;28;20204;-72
2023/05/16 02:15:42;;;;;;;27.33;24.23;;;7.90;99.90;;;;;;5074102;28;20288;-73
2023/05/16 02:18:09;;;;;;;28.73;24.47;;;7.90;99.90;;;;;;5073941;28;20249;-72
2023/05/16 02:20:36;;;;;;;29.73;25.33;;;7.90;99.90;;;;;;5073906;28;20196;-73
2023/05/16 02:23:03;;;;;;;31.23;24.47;;;7.90;99.90;;;;;;5073735;28;20203;-73
2023/05/16 02:25:30;;;;;;;28.63;25.30;;;7.70;99.90;;;;;;5073878;28;20225;-72
2023/05/16 02:27:56;;;;;;;28.37;24.10;;;7.70;99.90;;;;;;5073792;28;20193;-73
2023/05/16 02:30:23;;;;;;;27.87;24.87;;;7.50;99.90;;;;;;5073736;28;20205;-72
2023/05/16 02:32:52;;;;;;;30.90;24.70;;;7.50;99.90;;;;;;5073773;28;20197;-73
2023/05/16 02:35:19;;;;;;;29.10;25.13;;;7.40;99.90;;;;;;5073510;28;20193;-73
2023/05/16 02:37:45;;;;;;;30.40;25.47;;;7.40;99.90;;;;;;5073793;28;20203;-73
2023/05/16 02:40:14;;;;;;;27.17;24.23;;;7.50;99.90;;;;;;5073619;28;20245;-73
2023/05/16 02:42:40;;;;;;;28.50;25.07;;;7.60;99.90;;;;;;5073571;28;20295;-73
2023/05/16 02:45:08;;;;;;;27.97;24.93;;;7.70;99.90;;;;;;5073399;28;20197;-73
2023/05/16 02:47:34;;;;;;;28.63;24.77;;;7.80;99.90;;;;;;5073450;28;20245;-73
2023/05/16 02:50:02;;;;;;;27.73;24.80;;;7.90;99.90;;;;;;5073397;28;20201;-74
2023/05/16 02:52:29;;;;;;;28.83;24.83;;;7.80;99.90;;;;;;5073294;28;20244;-72
2023/05/16 02:54:56;;;;;;;28.83;24.63;;;7.90;99.90;;;;;;5073454;28;20193;-73
2023/05/16 02:57:22;;;;;;;28.67;25.47;;;7.70;99.90;;;;;;5073186;28;20199;-73
2023/05/16 02:59:49;;;;;;;29.20;25.50;;;7.70;99.90;;;;;;5073402;28;20247;-73
2023/05/16 03:02:16;;;;;;;29.70;26.43;;;7.60;99.90;;;;;;5073226;28;20227;-74
2023/05/16 03:04:42;;;;;;;28.83;25.30;;;7.50;99.90;;;;;;5073032;28;20732;-74
2023/05/16 03:07:10;;;;;;;33.07;25.43;;;7.40;99.90;;;;;;5073132;28;20221;-74
2023/05/16 03:09:37;;;;;;;29.13;24.83;;;7.30;99.90;;;;;;5073044;28;20204;-73
2023/05/16 03:12:04;;;;;;;31.60;25.13;;;7.30;99.90;;;;;;5072884;28;20680;-73
2023/05/16 03:14:30;;;;;;;29.27;25.70;;;7.40;99.90;;;;;;5073008;28;20197;-73
2023/05/16 03:16:57;;;;;;;29.10;24.73;;;7.40;99.90;;;;;;5072886;28;20197;-73
2023/05/16 03:19:24;;;;;;;29.30;24.57;;;7.40;99.90;;;;;;5072909;28;20200;-73
2023/05/16 03:21:50;;;;;;;28.83;25.00;;;7.30;99.90;;;;;;5073137;28;20577;-73
2023/05/16 03:24:20;;;;;;;28.93;25.43;;;7.30;99.90;;;;;;5073036;28;20200;-73
2023/05/16 03:26:47;;;;;;;30.10;24.67;;;7.50;99.90;;;;;;5072767;28;20224;-73
2023/05/16 03:29:14;;;;;;;30.73;25.53;;;7.70;99.90;;;;;;5072814;28;20201;-74
2023/05/16 03:31:41;;;;;;;29.50;25.63;;;7.70;99.90;;;;;;5072735;28;20197;-73
2023/05/16 03:34:07;;;;;;;30.27;25.93;;;7.70;99.90;;;;;;5072865;28;20224;-73
2023/05/16 03:36:34;;;;;;;30.53;26.33;;;7.80;99.90;;;;;;5072832;28;20254;-72
2023/05/16 03:39:01;;;;;;;29.37;25.83;;;7.90;99.90;;;;;;5072751;28;20292;-72
2023/05/16 03:41:29;;;;;;;31.20;25.67;;;8.00;99.90;;;;;;5072642;28;20691;-74
2023/05/16 03:43:55;;;;;;;28.30;25.20;;;8.00;99.90;;;;;;5072557;28;20572;-74
2023/05/16 03:46:22;;;;;;;28.70;24.50;;;8.00;99.90;;;;;;5072506;28;20274;-74
2023/05/16 03:48:49;;;;;;;30.03;25.53;;;8.00;99.90;;;;;;5072645;28;20200;-72
2023/05/16 03:51:15;;;;;;;28.77;24.00;;;7.90;99.90;;;;;;5072379;28;20197;-72
2023/05/16 03:53:42;;;;;;;26.97;24.07;;;8.00;99.90;;;;;;5072322;28;20228;-73
2023/05/16 03:56:08;;;;;;;28.53;25.17;;;8.10;99.90;;;;;;5072606;28;20612;-73
2023/05/16 03:58:36;;;;;;;26.00;23.10;;;8.30;99.90;;;;;;5072393;28;20201;-73
2023/05/16 04:01:03;;;;;;;27.00;23.60;;;8.40;99.90;;;;;;5072276;28;20669;-73
2023/05/16 04:03:30;;;;;;;28.13;23.60;;;8.40;99.90;;;;;;5072385;28;20197;-74
2023/05/16 04:05:57;;;;;;;25.40;22.80;;;8.50;99.90;;;;;;5072286;28;20557;-73
2023/05/16 04:08:24;;;;;;;23.83;21.13;;;8.50;99.90;;;;;;5073821;28;20212;-73
2023/05/16 04:10:51;;;;;;;23.90;21.30;;;8.60;99.90;;;;;;5076215;28;20205;-74
2023/05/16 04:13:17;;;;;;;22.83;20.43;;;8.60;99.90;;;;;;5076358;28;20645;-73
2023/05/16 04:15:45;;;;;;;22.63;20.30;;;8.60;99.90;;;;;;5076264;28;20263;-74
2023/05/16 04:18:13;;;;;;;21.60;19.40;;;8.70;99.90;;;;;;5076297;28;20201;-74
2023/05/16 04:20:41;;;;;;;20.90;18.70;;;8.70;99.90;;;;;;5076083;28;20197;-74
2023/05/16 04:23:09;;;;;;;21.17;18.87;;;8.70;99.90;;;;;;5075900;28;20196;-74
2023/05/16 04:25:36;;;;;;;19.63;17.63;;;8.80;99.90;;;;;;5075830;28;20680;-74
2023/05/16 04:28:03;;;;;;;22.20;18.27;;;8.70;99.90;;;;;;5075845;28;20564;-74
2023/05/16 04:30:29;;;;;;;21.37;18.53;;;8.70;99.90;;;;;;5075894;28;20712;-74
2023/05/16 04:32:58;;;;;;;21.57;18.47;;;8.60;99.90;;;;;;5076024;28;20657;-74
2023/05/16 04:35:25;;;;;;;20.67;18.47;;;8.70;99.90;;;;;;5075648;28;20208;-74
2023/05/16 04:37:51;;;;;;;20.40;17.50;;;8.70;99.90;;;;;;5075848;28;20204;-75
2023/05/16 04:40:18;;;;;;;21.70;17.23;;;8.80;99.90;;;;;;5075603;28;20243;-74
2023/05/16 04:42:45;;;;;;;19.23;17.23;;;8.80;99.90;;;;;;5075840;28;20196;-74
2023/05/16 04:45:13;;;;;;;20.23;17.17;;;8.80;99.90;;;;;;5075720;28;20254;-72
2023/05/16 04:47:41;;;;;;;17.57;15.67;;;8.80;99.90;;;;;;5075508;28;20278;-74
2023/05/16 04:50:10;;;;;;;20.37;16.30;;;8.90;99.90;;;;;;5075432;28;20660;-74
2023/05/16 04:52:36;;;;;;;20.17;16.20;;;9.00;99.90;;;;;;5075398;28;20260;-74
2023/05/16 04:55:04;;;;;;;17.37;15.67;;;9.10;99.90;;;;;;5075410;28;20284;-74
2023/05/16 04:57:30;;;;;;;21.87;16.10;;;9.10;99.90;;;;;;5075441;28;20583;-74
2023/05/16 04:59:57;;;;;;;17.77;15.90;;;9.30;99.90;;;;;;5075467;28;20318;-74
2023/05/16 05:02:24;;;;;;;17.70;15.90;;;9.40;99.90;;;;;;5075417;28;20266;-74
2023/05/16 05:04:51;;;;;;;17.13;15.33;;;9.50;99.90;;;;;;5075423;28;20626;-74
2023/05/16 05:07:19;;;;;;;17.07;15.37;;;9.60;99.90;;;;;;5075160;28;20220;-74
2023/05/16 05:09:45;;;;;;;17.60;15.90;;;9.60;99.90;;;;;;5075188;28;20201;-75
2023/05/16 05:12:12;;;;;;;19.50;15.67;;;9.80;99.90;;;;;;5075468;28;20247;-74
2023/05/16 05:14:38;;;;;;;17.20;15.20;;;9.90;99.90;;;;;;5075272;28;20197;-74
2023/05/16 05:17:05;;;;;;;15.83;14.13;;;10.00;99.90;;;;;;5075108;28;20710;-74
2023/05/16 05:19:32;;;;;;;16.37;14.77;;;10.00;99.90;;;;;;5073758;28;20203;-74
2023/05/16 05:21:59;;;;;;;15.97;14.37;;;10.10;99.90;;;;;;5082282;28;20649;-74
2023/05/16 05:24:27;;;;;;;18.43;15.57;;;10.20;99.90;;;;;;5075149;28;20250;-74
2023/05/16 05:26:53;;;;;;;16.07;14.43;;;10.30;99.90;;;;;;5075097;28;20220;-74
2023/05/16 05:29:20;;;;;;;16.70;14.97;;;10.40;99.90;;;;;;5075001;28;20254;-74
2023/05/16 05:31:46;;;;;;;16.33;14.73;;;10.40;99.90;;;;;;5075003;28;20197;-74
2023/05/16 05:34:13;;;;;;;16.07;14.43;;;10.50;99.90;;;;;;5074737;28;20600;-74
2023/05/16 05:36:40;;;;;;;15.97;14.50;;;10.50;99.90;;;;;;5074664;28;20201;-75
2023/05/16 05:39:06;;;;;;;17.40;15.63;;;10.60;99.90;;;;;;5074826;28;20201;-74
2023/05/16 05:41:34;;;;;;;16.00;14.33;;;10.70;99.90;;;;;;5074496;28;20197;-73
2023/05/16 05:44:01;;;;;;;16.73;15.03;;;10.80;99.90;;;;;;5074517;28;20197;-74
2023/05/16 05:46:28;;;;;;;16.60;14.80;;;11.00;99.90;;;;;;5074269;28;20229;-73
2023/05/16 05:48:54;;;;;;;15.77;13.90;;;11.10;99.90;;;;;;5074202;28;20205;-73
2023/05/16 05:51:21;;;;;;;15.30;13.80;;;11.20;99.90;;;;;;5074180;28;20258;-74
2023/05/16 05:53:48;;;;;;;15.80;14.10;;;11.30;99.90;;;;;;5074276;28;20229;-73
2023/05/16 05:56:14;;;;;;;16.57;14.83;;;11.60;99.90;;;;;;5074006;28;20668;-74
2023/05/16 05:58:42;;;;;;;15.33;13.50;;;11.80;99.90;;;;;;5074155;28;20197;-74
2023/05/16 06:01:10;;;;;;;15.00;13.53;;;12.00;99.90;;;;;;5074338;28;20569;-74
2023/05/16 06:03:37;;;;;;;14.83;13.33;;;12.20;99.90;;;;;;5073987;28;20731;-74
2023/05/16 06:06:04;;;;;;;13.97;12.67;;;12.30;99.90;;;;;;5074080;28;20255;-74
2023/05/16 06:08:31;;;;;;;14.13;12.67;;;12.40;99.90;;;;;;5074009;28;20208;-74
2023/05/16 06:10:57;;;;;;;13.17;11.93;;;12.60;99.90;;;;;;5073854;28;20201;-74
2023/05/16 06:13:24;;;;;;;12.67;11.47;;;12.50;99.90;;;;;;5073985;28;20262;-74
2023/05/16 06:15:52;;;;;;;13.43;12.03;;;12.60;99.90;;;;;;5073616;28;20234;-74
2023/05/16 06:18:19;;;;;;;15.03;12.73;;;12.80;99.90;;;;;;5073821;28;20200;-74
2023/05/16 06:20:46;;;;;;;14.23;12.90;;;12.80;99.90;;;;;;5074029;28;20270;-74
2023/05/16 06:23:13;;;;;;;15.23;13.63;;;12.70;99.90;;;;;;5073931;28;20196;-74
2023/05/16 06:25:40;;;;;;;14.00;12.70;;;12.80;99.90;;;;;;5073910;28;20200;-74
2023/05/16 06:28:06;;;;;;;14.40;13.03;;;12.70;99.90;;;;;;5073697;28;20872;-73
2023/05/16 06:30:33;;;;;;;13.37;12.03;;;12.90;99.90;;;;;;5073338;28;20201;-74
2023/05/16 06:33:01;;;;;;;13.47;12.20;;;13.00;99.90;;;;;;5073556;28;20254;-74
2023/05/16 06:35:28;;;;;;;13.17;11.87;;;13.10;99.90;;;;;;5073685;28;20579;-74
2023/05/16 06:37:54;;;;;;;14.43;12.93;;;13.10;99.90;;;;;;5073554;28;20201;-73
2023/05/16 06:40:21;;;;;;;13.53;12.23;;;13.00;99.90;;;;;;5073388;28;20205;-73
2023/05/16 06:42:47;;;;;;;14.33;13.03;;;13.00;99.90;;;;;;5073601;28;20197;-74
2023/05/16 06:45:14;;;;;;;14.17;12.83;;;13.00;99.90;;;;;;5073364;28;20197;-74
2023/05/16 06:47:41;;;;;;;15.47;13.97;;;12.90;99.90;;;;;;5073293;28;20229;-74
2023/05/16 06:50:10;;;;;;;16.67;13.93;;;12.80;99.90;;;;;;5073235;28;20713;-73
2023/05/16 06:52:36;;;;;;;16.17;14.47;;;12.60;99.90;;;;;;5073197;28;20236;-74
2023/05/16 06:55:03;;;;;;;14.77;13.37;;;12.80;99.90;;;;;;5073414;28;20193;-73
2023/05/16 06:57:30;;;;;;;15.47;13.87;;;12.70;99.90;;;;;;5073090;28;20725;-73
2023/05/16 06:59:56;;;;;;;14.83;13.33;;;12.60;99.90;;;;;;5073137;28;20736;-73
2023/05/16 07:02:23;;;;;;;14.67;13.20;;;12.70;99.90;;;;;;5073260;28;20254;-73
2023/05/16 07:04:49;;;;;;;15.23;13.83;;;12.70;99.90;;;;;;5073335;28;20247;-73
2023/05/16 07:07:17;;;;;;;15.97;14.47;;;12.60;99.90;;;;;;5073188;28;20224;-73
2023/05/16 07:09:44;;;;;;;16.30;13.90;;;12.70;99.90;;;;;;5073088;28;20247;-73
2023/05/16 07:12:11;;;;;;;14.90;13.30;;;12.90;99.90;;;;;;5073031;28;20288;-73
2023/05/16 07:14:38;;;;;;;15.57;14.03;;;13.30;99.90;;;;;;5072962;28;20193;-74
2023/05/16 07:17:05;;;;;;;14.20;13.00;;;13.50;99.90;;;;;;5073368;28;20193;-74
2023/05/16 07:19:31;;;;;;;14.03;12.63;;;13.70;99.90;;;;;;5073071;28;20561;-74
2023/05/16 07:21:58;;;;;;;14.33;12.57;;;14.00;99.90;;;;;;5072878;28;20717;-73
2023/05/16 07:24:26;;;;;;;13.77;12.57;;;14.00;99.90;;;;;;5072898;28;20200;-74
2023/05/16 07:26:52;;;;;;;13.43;12.13;;;14.20;99.90;;;;;;5077324;28;20224;-73
2023/05/16 07:29:19;;;;;;;14.20;12.80;;;14.20;99.90;;;;;;5075606;28;20227;-73
2023/05/16 07:31:46;;;;;;;14.00;12.70;;;14.00;99.90;;;;;;5072713;28;20736;-73
2023/05/16 07:34:12;;;;;;;13.87;12.43;;;14.40;99.90;;;;;;5072976;28;20201;-74
2023/05/16 07:36:39;;;;;;;15.67;12.67;;;14.70;99.90;;;;;;5072853;28;20193;-74
2023/05/16 07:39:05;;;;;;;13.95;12.60;;;15.00;99.90;;;;;;5072706;28;20197;-74
2023/05/16 07:41:33;;;;;;;13.27;12.00;;;15.20;99.90;;;;;;5072903;28;20205;-73
2023/05/16 07:44:00;;;;;;;12.98;11.57;;;15.30;99.90;;;;;;5075305;28;20230;-74
2023/05/16 07:46:26;;;;;;;12.90;11.80;;;15.40;99.90;;;;;;5077068;28;20201;-74
2023/05/16 07:48:53;;;;;;;13.23;12.05;;;15.80;99.90;;;;;;5076860;28;20224;-74
2023/05/16 07:51:20;;;;;;;12.85;11.65;;;15.90;99.90;;;;;;5076816;28;20660;-74
2023/05/16 07:53:46;;;;;;;12.38;11.30;;;16.20;99.90;;;;;;5076870;28;20229;-73
2023/05/16 07:56:13;;;;;;;19.70;12.55;;;16.40;99.90;;;;;;5076635;28;20197;-73
2023/05/16 07:58:41;;;;;;;12.43;11.23;;;15.90;99.90;;;;;;5076831;28;20349;-74
2023/05/16 08:01:08;;;;;;;14.48;13.18;;;16.30;99.90;;;;;;5076798;28;20243;-74
2023/05/16 08:03:35;;;;;;;15.30;13.82;;;15.90;99.90;;;;;;5076891;28;20227;-73
2023/05/16 08:06:02;;;;;;;14.52;13.13;;;15.40;99.90;;;;;;5076647;28;20198;-74
2023/05/16 08:08:28;;;;;;;14.45;13.05;;;15.30;99.90;;;;;;5076412;28;20221;-73
2023/05/16 08:10:55;;;;;;;15.02;13.57;;;15.30;99.90;;;;;;5076385;28;20204;-74
2023/05/16 08:13:22;;;;;;;13.90;12.60;;;15.70;99.90;;;;;;5076511;28;20197;-74
2023/05/16 08:15:50;;;;;;;14.82;13.32;;;15.50;99.90;;;;;;5076257;28;20599;-74
2023/05/16 08:18:16;;;;;;;13.48;12.18;;;15.30;99.90;;;;;;5076325;28;20200;-74
2023/05/16 08:20:43;;;;;;;14.35;12.88;;;16.10;99.90;;;;;;5076235;28;20205;-74
2023/05/16 08:23:10;;;;;;;13.35;12.05;;;16.30;99.90;;;;;;5076122;28;20193;-74
2023/05/16 08:25:37;;;;;;;14.90;13.43;;;16.90;99.90;;;;;;5075945;28;20197;-74
2023/05/16 08:28:03;;;;;;;15.63;14.13;;;16.50;99.90;;;;;;5076026;28;20228;-74
2023/05/16 08:30:30;;;;;;;16.38;14.75;;;16.20;99.90;;;;;;5075991;28;20250;-73
2023/05/16 08:32:58;;;;;;;15.10;13.70;;;15.80;99.90;;;;;;5075876;28;20259;-74
2023/05/16 08:35:24;;;;;;;15.70;14.20;;;15.30;99.90;;;;;;5076004;28;20270;-74
2023/05/16 08:37:51;;;;;;;15.35;13.68;;;15.50;99.90;;;;;;5075766;28;20204;-73
2023/05/16 08:40:19;;;;;;;17.08;14.68;;;15.70;99.90;;;;;;5076066;28;20537;-73
2023/05/16 08:42:45;;;;;;;16.42;14.73;;;15.60;99.90;;;;;;5075841;28;20208;-73
2023/05/16 08:45:13;;;;;;;16.45;14.13;;;15.50;99.90;;;;;;5075769;28;20193;-74
2023/05/16 08:47:42;;;;;;;15.88;14.48;;;15.40;99.90;;;;;;5075724;28;20231;-74
2023/05/16 08:50:10;;;;;;;15.57;13.98;;;15.60;99.90;;;;;;5075643;28;20282;-74
2023/05/16 08:52:39;;;;;;;15.65;14.15;;;15.50;99.90;;;;;;5075781;28;20233;-74
2023/05/16 08:55:09;;;;;;;14.68;13.27;;;15.00;99.90;;;;;;5075549;28;20197;-74
2023/05/16 08:57:36;;;;;;;15.63;14.13;;;15.10;99.90;;;;;;5075933;28;20204;-73
2023/05/16 09:00:09;;;;;;;13.68;12.38;;;15.20;99.90;;;;;;5075355;28;20639;-73
2023/05/16 09:02:37;;;;;;;14.88;13.32;;;15.20;99.90;;;;;;5075448;28;20560;-73
2023/05/16 09:05:05;;;;;;;14.83;13.43;;;15.00;99.90;;;;;;5075374;28;20197;-74
2023/05/16 09:07:33;;;;;;;15.07;13.67;;;14.70;99.90;;;;;;5075444;28;20626;-72
2023/05/16 09:10:00;;;;;;;15.23;13.73;;;15.10;99.90;;;;;;5075410;28;20197;-74
2023/05/16 09:12:26;;;;;;;14.98;13.52;;;15.10;99.90;;;;;;5075322;28;20266;-73
2023/05/16 09:14:54;;;;;;;14.93;13.43;;;15.40;99.90;;;;;;5075183;28;20653;-74
2023/05/16 09:17:21;;;;;;;13.63;12.27;;;15.00;99.90;;;;;;5075096;28;20200;-74
2023/05/16 09:19:51;;;;;;;14.53;13.10;;;15.00;99.90;;;;;;5075083;28;20656;-74
2023/05/16 09:22:24;;;;;;;16.40;14.70;;;14.60;99.90;;;;;;5075021;28;20656;-74
2023/05/16 09:24:52;;;;;;;15.63;14.03;;;14.60;99.90;;;;;;5074964;28;20287;-74
2023/05/16 09:27:19;;;;;;;15.10;13.70;;;14.60;99.90;;;;;;5074840;28;20219;-74
2023/05/16 09:29:51;;;;;;;15.07;13.63;;;14.50;99.90;;;;;;5074822;28;20204;-74
2023/05/16 09:32:18;;;;;;;14.27;12.93;;;14.90;99.90;;;;;;5075063;28;20625;-74
2023/05/16 09:34:47;;;;;;;15.60;14.07;;;15.30;99.90;;;;;;5074923;28;20193;-74
2023/05/16 09:37:14;;;;;;;15.13;13.73;;;15.00;99.90;;;;;;5074836;28;20207;-74
2023/05/16 09:39:46;;;;;;;14.70;13.20;;;15.00;99.90;;;;;;5075123;28;20201;-74
2023/05/16 09:42:14;;;;;;;15.40;14.00;;;15.20;99.90;;;;;;5074706;28;20197;-74
2023/05/16 09:44:41;;;;;;;16.02;14.52;;;15.00;99.90;;;;;;5074617;28;20205;-73
2023/05/16 09:47:08;;;;;;;15.00;13.50;;;14.90;99.90;;;;;;5074478;28;20656;-74
2023/05/16 09:49:37;;;;;;;16.27;14.67;;;14.50;99.90;;;;;;5074589;28;20225;-74
2023/05/16 09:52:04;;;;;;;15.13;13.70;;;14.60;99.90;;;;;;5074613;28;20193;-74
2023/05/16 09:54:32;;;;;;;15.70;14.20;;;14.80;99.90;;;;;;5074467;28;20197;-74
2023/05/16 09:56:59;;;;;;;15.75;14.15;;;14.70;99.90;;;;;;5074246;28;20196;-74
2023/05/16 09:59:29;;;;;;;15.67;14.17;;;14.40;99.90;;;;;;5074408;28;20211;-74
2023/05/16 10:01:58;;;;;;;14.80;13.50;;;14.50;99.90;;;;;;5074359;28;20291;-74
2023/05/16 10:04:25;;;;;;;16.67;14.97;;;14.70;99.90;;;;;;5074349;28;20200;-74
2023/05/16 10:06:53;;;;;;;16.40;14.67;;;14.30;99.90;;;;;;5073489;28;20657;-74
2023/05/16 10:09:22;;;;;;;15.20;13.60;;;14.80;99.90;;;;;;5074013;28;20302;-73
2023/05/16 10:11:51;;;;;;;13.77;12.47;;;14.60;99.90;;;;;;5074285;28;20205;-73
2023/05/16 10:14:19;;;;;;;14.52;13.20;;;14.90;99.90;;;;;;5074097;28;20231;-74
2023/05/16 10:16:48;;;;;;;14.93;13.47;;;14.70;99.90;;;;;;5074108;28;20248;-73
2023/05/16 10:19:17;;;;;;;15.23;13.90;;;14.30;99.90;;;;;;5074021;28;20201;-73
2023/05/16 10:21:50;;;;;;;15.27;13.77;;;14.60;99.90;;;;;;5073797;28;20197;-73
2023/05/16 10:24:22;;;;;;;13.17;11.93;;;14.90;99.90;;;;;;5073968;28;20188;-74
2023/05/16 10:26:49;;;;;;;14.55;12.35;;;15.00;99.90;;;;;;5073758;28;20652;-73
2023/05/16 10:29:17;;;;;;;13.85;12.55;;;15.20;99.90;;;;;;5073771;28;20232;-74
2023/05/16 10:31:44;;;;;;;13.43;12.13;;;15.30;99.90;;;;;;5073603;28;20584;-73
2023/05/16 10:34:12;;;;;;;12.45;11.13;;;15.20;99.90;;;;;;5073663;28;20197;-73
2023/05/16 10:36:39;;;;;;;12.70;11.48;;;15.50;99.90;;;;;;5073522;28;20196;-73
2023/05/16 10:39:06;;;;;;;13.30;11.52;;;14.60;99.90;;;;;;5073694;28;20254;-73
2023/05/16 10:41:34;;;;;;;12.70;11.50;;;15.10;99.90;;;;;;5073636;28;20196;-73
2023/05/16 10:44:01;;;;;;;11.55;10.45;;;15.10;99.90;;;;;;5073435;28;20656;-73
2023/05/16 10:46:28;;;;;;;15.13;11.52;;;14.90;99.90;;;;;;5073459;28;20556;-73
2023/05/16 10:48:55;;;;;;;12.10;10.73;;;14.90;99.90;;;;;;5073177;28;20221;-74
2023/05/16 10:51:37;;;;;;;11.90;10.47;;;14.40;99.90;;;;;;5073128;28;20196;-73
2023/05/16 10:54:09;;;;;;;11.93;10.73;;;14.70;99.90;;;;;;5072980;28;20703;-73
2023/05/16 10:56:36;;;;;;;11.18;10.07;;;14.50;99.90;;;;;;5073446;28;20196;-73
2023/05/16 10:59:03;;;;;;;10.98;9.82;;;15.50;99.90;;;;;;5073187;28;20263;-74
2023/05/16 11:01:32;;;;;;;11.10;10.10;;;16.00;99.90;;;;;;5072996;28;20197;-73
2023/05/16 11:04:20;;;;;;;12.88;10.38;;;16.10;99.90;;;;;;5073007;28;20204;-73
2023/05/16 11:06:51;;;;;;;10.95;9.85;;;16.30;99.90;;;;;;5068125;28;20201;-73
2023/05/16 11:09:21;;;;;;;12.55;10.18;;;16.50;99.90;;;;;;5072985;28;20275;-73
2023/05/16 11:11:54;;;;;;;10.02;9.13;;;16.60;99.90;;;;;;5073005;28;20232;-74
2023/05/16 11:14:22;;;;;;;9.80;8.80;;;16.90;99.90;;;;;;5072941;28;20205;-73
2023/05/16 11:16:50;;;;;;;8.35;7.55;;;17.30;99.90;;;;;;5073065;28;20274;-73
2023/05/16 11:19:30;;;;;;;11.23;8.13;;;18.90;99.90;;;;;;5072969;28;20197;-73
2023/05/16 11:22:08;;;;;;;7.78;7.07;;;18.60;99.90;;;;;;5072935;28;20200;-73
2023/05/16 11:24:36;;;;;;;8.07;7.32;;;19.10;99.90;;;;;;5072858;28;20254;-74
2023/05/16 11:27:04;;;;;;;9.27;7.25;;;18.30;99.90;;;;;;5073048;28;20299;-73
2023/05/16 11:29:32;;;;;;;8.35;7.45;;;18.90;99.90;;;;;;5072887;28;20311;-75
2023/05/16 11:32:01;;;;;;;8.15;6.35;;;18.30;99.90;;;;;;5072768;28;20292;-73
2023/05/16 11:34:28;;;;;;;7.00;6.40;;;19.20;99.90;;;;;;5072834;28;20266;-74
2023/05/16 11:36:55;;;;;;;8.18;6.82;;;19.20;99.90;;;;;;5072748;28;20243;-74
2023/05/16 11:39:24;;;;;;;7.68;6.97;;;19.40;99.90;;;;;;5072533;28;20279;-74
2023/05/16 11:41:50;;;;;;;6.72;6.13;;;19.30;99.90;;;;;;5072800;28;20308;-74
2023/05/16 11:44:17;;;;;;;7.32;6.65;;;19.80;99.90;;;;;;5072592;28;20714;-74
2023/05/16 11:46:44;;;;;;;8.27;7.43;;;20.90;99.90;;;;;;5072673;28;20197;-75
2023/05/16 11:49:11;;;;;;;9.23;6.80;;;18.90;99.90;;;;;;5072391;28;20639;-74
2023/05/16 11:51:38;;;;;;;7.28;6.68;;;18.90;99.90;;;;;;5072440;28;20607;-74
2023/05/16 11:54:05;;;;;;;7.80;7.00;;;19.60;99.90;;;;;;5072584;28;20278;-74
2023/05/16 11:56:35;;;;;;;6.57;5.97;;;20.20;99.90;;;;;;5072633;28;20204;-74
2023/05/16 11:59:03;;;;;;;7.15;6.55;;;20.00;99.90;;;;;;5072885;28;20596;-75
2023/05/16 12:01:34;;;;;;;6.93;6.25;;;19.60;99.90;;;;;;5072561;28;20231;-75
2023/05/16 12:04:00;;;;;;;6.72;6.07;;;19.90;99.90;;;;;;5072466;28;20201;-74
2023/05/16 12:06:29;;;;;;;9.10;6.07;;;19.90;99.90;;;;;;5072358;28;20277;-74
2023/05/16 12:08:56;;;;;;;7.30;6.43;;;21.00;99.90;;;;;;5072460;28;20313;-74
2023/05/16 12:11:23;;;;;;;7.50;6.80;;;20.00;99.90;;;;;;5072447;28;20254;-74
2023/05/16 12:13:52;;;;;;;8.00;6.63;;;20.20;99.90;;;;;;5072405;28;20197;-76
2023/05/16 12:16:19;;;;;;;7.68;6.72;;;21.80;99.90;;;;;;5072259;28;20200;-75
2023/05/16 12:18:46;;;;;;;7.60;7.00;;;23.30;99.40;;;;;;5072518;28;20208;-74
2023/05/16 12:21:13;;;;;;;8.68;7.60;;;20.80;99.90;;;;;;5072734;28;20200;-75
2023/05/16 12:23:42;;;;;;;8.60;7.80;;;20.10;99.90;;;;;;5072202;28;20284;-74
2023/05/16 12:26:08;;;;;;;8.80;8.05;;;19.10;99.90;;;;;;5072229;28;20797;-74
2023/05/16 12:28:37;;;;;;;7.95;7.18;;;18.10;99.90;;;;;;5072362;28;20221;-73
2023/05/16 12:31:12;;;;;;;7.93;7.13;;;17.20;99.90;;;;;;5075948;28;20706;-75
2023/05/16 12:33:39;;;;;;;8.02;7.22;;;18.00;99.90;;;;;;5076025;28;20550;-74
2023/05/16 12:36:13;;;;;;;11.85;6.78;;;18.40;99.90;;;;;;5076148;28;20200;-74